sensor_id;sensor_type;location;lat;lon;timestamp;temperature;humidity
8957;DHT22;4513;50.054;8.230;2023-06-26T00:00:49;20.00;95.20
8957;DHT22;4513;50.054;8.230;2023-06-26T00:03:16;20.00;95.30
8957;DHT22;4513;50.054;8.230;2023-06-26T00:05:43;20.00;95.50
8957;DHT22;4513;50.054;8.230;2023-06-26T00:08:09;20.00;95.60
8957;DHT22;4513;50.054;8.230;2023-06-26T00:10:38;19.80;95.60
8957;DHT22;4513;50.054;8.230;2023-06-26T00:13:05;19.90;95.90
8957;DHT22;4513;50.054;8.230;2023-06-26T00:15:31;20.00;95.90
8957;DHT22;4513;50.054;8.230;2023-06-26T00:17:58;20.00;95.80
8957;DHT22;4513;50.054;8.230;2023-06-26T00:20:25;19.90;95.90
8957;DHT22;4513;50.054;8.230;2023-06-26T00:22:52;19.80;96.10
8957;DHT22;4513;50.054;8.230;2023-06-26T00:25:19;19.60;96.40
8957;DHT22;4513;50.054;8.230;2023-06-26T00:27:47;19.60;96.70
8957;DHT22;4513;50.054;8.230;2023-06-26T00:30:14;19.50;97.00
8957;DHT22;4513;50.054;8.230;2023-06-26T00:32:41;19.40;97.00
8957;DHT22;4513;50.054;8.230;2023-06-26T00:35:08;19.40;97.20
8957;DHT22;4513;50.054;8.230;2023-06-26T00:37:34;19.30;97.40
8957;DHT22;4513;50.054;8.230;2023-06-26T00:40:01;19.40;97.50
8957;DHT22;4513;50.054;8.230;2023-06-26T00:42:28;19.40;97.50
8957;DHT22;4513;50.054;8.230;2023-06-26T00:44:56;19.40;97.60
8957;DHT22;4513;50.054;8.230;2023-06-26T00:47:24;19.30;97.70
8957;DHT22;4513;50.054;8.230;2023-06-26T00:49:51;19.20;97.80
8957;DHT22;4513;50.054;8.230;2023-06-26T00:52:18;19.20;98.00
8957;DHT22;4513;50.054;8.230;2023-06-26T00:54:48;19.20;98.20
8957;DHT22;4513;50.054;8.230;2023-06-26T00:57:17;19.10;98.30
8957;DHT22;4513;50.054;8.230;2023-06-26T00:59:43;19.20;98.40
8957;DHT22;4513;50.054;8.230;2023-06-26T01:02:11;19.20;98.50
8957;DHT22;4513;50.054;8.230;2023-06-26T01:04:46;19.10;98.50
8957;DHT22;4513;50.054;8.230;2023-06-26T01:07:13;19.10;98.70
8957;DHT22;4513;50.054;8.230;2023-06-26T01:09:40;19.00;98.80
8957;DHT22;4513;50.054;8.230;2023-06-26T01:12:08;18.90;99.00
8957;DHT22;4513;50.054;8.230;2023-06-26T01:14:34;18.90;99.20
8957;DHT22;4513;50.054;8.230;2023-06-26T01:17:02;18.90;99.30
8957;DHT22;4513;50.054;8.230;2023-06-26T01:19:31;18.90;99.40
8957;DHT22;4513;50.054;8.230;2023-06-26T01:22:05;18.80;99.50
8957;DHT22;4513;50.054;8.230;2023-06-26T01:24:44;18.80;99.60
8957;DHT22;4513;50.054;8.230;2023-06-26T01:27:13;18.80;99.80
8957;DHT22;4513;50.054;8.230;2023-06-26T01:29:41;18.70;99.90
8957;DHT22;4513;50.054;8.230;2023-06-26T01:32:08;18.70;99.90
8957;DHT22;4513;50.054;8.230;2023-06-26T01:34:36;18.60;99.90
8957;DHT22;4513;50.054;8.230;2023-06-26T01:37:03;18.60;99.90
8957;DHT22;4513;50.054;8.230;2023-06-26T01:39:30;18.60;99.90
8957;DHT22;4513;50.054;8.230;2023-06-26T01:41:57;18.70;99.90
8957;DHT22;4513;50.054;8.230;2023-06-26T01:44:28;18.60;99.90
8957;DHT22;4513;50.054;8.230;2023-06-26T01:47:00;18.60;99.90
8957;DHT22;4513;50.054;8.230;2023-06-26T01:49:46;18.60;99.90
8957;DHT22;4513;50.054;8.230;2023-06-26T01:52:19;18.50;99.90
8957;DHT22;4513;50.054;8.230;2023-06-26T01:54:54;18.40;99.90
8957;DHT22;4513;50.054;8.230;2023-06-26T01:57:23;18.40;99.90
8957;DHT22;4513;50.054;8.230;2023-06-26T01:59:55;18.40;99.90
8957;DHT22;4513;50.054;8.230;2023-06-26T02:02:24;18.40;99.90
8957;DHT22;4513;50.054;8.230;2023-06-26T02:04:51;18.40;99.90
8957;DHT22;4513;50.054;8.230;2023-06-26T02:07:18;18.30;99.90
8957;DHT22;4513;50.054;8.230;2023-06-26T02:09:44;18.20;99.90
8957;DHT22;4513;50.054;8.230;2023-06-26T02:12:11;18.20;99.90
8957;DHT22;4513;50.054;8.230;2023-06-26T02:14:38;18.20;99.90
8957;DHT22;4513;50.054;8.230;2023-06-26T02:17:06;18.10;99.90
8957;DHT22;4513;50.054;8.230;2023-06-26T02:19:34;18.20;99.90
8957;DHT22;4513;50.054;8.230;2023-06-26T02:22:01;18.10;99.90
8957;DHT22;4513;50.054;8.230;2023-06-26T02:24:27;18.10;99.90
8957;DHT22;4513;50.054;8.230;2023-06-26T02:26:55;18.10;99.90
8957;DHT22;4513;50.054;8.230;2023-06-26T02:29:22;18.20;99.90
8957;DHT22;4513;50.054;8.230;2023-06-26T02:31:49;18.20;99.90
8957;DHT22;4513;50.054;8.230;2023-06-26T02:34:17;18.30;99.90
8957;DHT22;4513;50.054;8.230;2023-06-26T02:36:44;18.30;99.90
8957;DHT22;4513;50.054;8.230;2023-06-26T02:39:11;18.30;99.90
8957;DHT22;4513;50.054;8.230;2023-06-26T02:41:37;18.30;99.90
8957;DHT22;4513;50.054;8.230;2023-06-26T02:44:04;18.20;99.90
8957;DHT22;4513;50.054;8.230;2023-06-26T02:46:31;18.30;99.90
8957;DHT22;4513;50.054;8.230;2023-06-26T02:48:59;18.30;99.90
8957;DHT22;4513;50.054;8.230;2023-06-26T02:51:27;18.30;99.90
8957;DHT22;4513;50.054;8.230;2023-06-26T02:53:54;18.30;99.90
8957;DHT22;4513;50.054;8.230;2023-06-26T02:56:20;18.30;99.90
8957;DHT22;4513;50.054;8.230;2023-06-26T02:58:47;18.10;99.90
8957;DHT22;4513;50.054;8.230;2023-06-26T03:01:14;18.00;99.90
8957;DHT22;4513;50.054;8.230;2023-06-26T03:03:41;17.90;99.90
8957;DHT22;4513;50.054;8.230;2023-06-26T03:06:08;17.90;99.90
8957;DHT22;4513;50.054;8.230;2023-06-26T03:08:37;17.90;99.90
8957;DHT22;4513;50.054;8.230;2023-06-26T03:11:04;17.80;99.90
8957;DHT22;4513;50.054;8.230;2023-06-26T03:13:32;17.80;99.90
8957;DHT22;4513;50.054;8.230;2023-06-26T03:15:59;17.90;99.90
8957;DHT22;4513;50.054;8.230;2023-06-26T03:18:26;17.90;99.90
8957;DHT22;4513;50.054;8.230;2023-06-26T03:20:53;17.80;99.90
8957;DHT22;4513;50.054;8.230;2023-06-26T03:23:20;17.90;99.90
8957;DHT22;4513;50.054;8.230;2023-06-26T03:25:49;17.90;99.90
8957;DHT22;4513;50.054;8.230;2023-06-26T03:28:16;17.90;99.90
8957;DHT22;4513;50.054;8.230;2023-06-26T03:30:43;17.90;99.90
8957;DHT22;4513;50.054;8.230;2023-06-26T03:33:10;17.80;99.90
8957;DHT22;4513;50.054;8.230;2023-06-26T03:35:37;17.70;99.90
8957;DHT22;4513;50.054;8.230;2023-06-26T03:38:04;17.70;99.90
8957;DHT22;4513;50.054;8.230;2023-06-26T03:40:31;17.70;99.90
8957;DHT22;4513;50.054;8.230;2023-06-26T03:42:59;17.70;99.90
8957;DHT22;4513;50.054;8.230;2023-06-26T03:45:26;17.50;99.90
8957;DHT22;4513;50.054;8.230;2023-06-26T03:47:52;17.60;99.90
8957;DHT22;4513;50.054;8.230;2023-06-26T03:50:19;17.60;99.90
8957;DHT22;4513;50.054;8.230;2023-06-26T03:52:46;17.50;99.90
8957;DHT22;4513;50.054;8.230;2023-06-26T03:55:13;17.60;99.90
8957;DHT22;4513;50.054;8.230;2023-06-26T03:57:40;17.60;99.90
8957;DHT22;4513;50.054;8.230;2023-06-26T04:00:09;17.60;99.90
8957;DHT22;4513;50.054;8.230;2023-06-26T04:02:38;17.70;99.90
8957;DHT22;4513;50.054;8.230;2023-06-26T04:05:05;17.70;99.90
8957;DHT22;4513;50.054;8.230;2023-06-26T04:07:32;17.80;99.90
8957;DHT22;4513;50.054;8.230;2023-06-26T04:10:00;17.80;99.90
8957;DHT22;4513;50.054;8.230;2023-06-26T04:12:27;17.80;99.90
8957;DHT22;4513;50.054;8.230;2023-06-26T04:14:53;17.80;99.90
8957;DHT22;4513;50.054;8.230;2023-06-26T04:17:21;17.80;99.90
8957;DHT22;4513;50.054;8.230;2023-06-26T04:19:48;17.80;99.90
8957;DHT22;4513;50.054;8.230;2023-06-26T04:22:15;17.90;99.90
8957;DHT22;4513;50.054;8.230;2023-06-26T04:24:42;17.90;99.90
8957;DHT22;4513;50.054;8.230;2023-06-26T04:27:11;18.00;99.90
8957;DHT22;4513;50.054;8.230;2023-06-26T04:29:39;18.10;99.90
8957;DHT22;4513;50.054;8.230;2023-06-26T04:32:06;18.20;99.90
8957;DHT22;4513;50.054;8.230;2023-06-26T04:34:34;18.30;99.90
8957;DHT22;4513;50.054;8.230;2023-06-26T04:37:02;18.40;99.90
8957;DHT22;4513;50.054;8.230;2023-06-26T04:39:30;18.40;99.90
8957;DHT22;4513;50.054;8.230;2023-06-26T04:41:57;18.50;99.90
8957;DHT22;4513;50.054;8.230;2023-06-26T04:44:24;18.50;99.90
8957;DHT22;4513;50.054;8.230;2023-06-26T04:46:50;18.70;99.90
8957;DHT22;4513;50.054;8.230;2023-06-26T04:49:18;18.80;99.90
8957;DHT22;4513;50.054;8.230;2023-06-26T04:51:46;18.90;99.90
8957;DHT22;4513;50.054;8.230;2023-06-26T04:54:14;18.90;99.90
8957;DHT22;4513;50.054;8.230;2023-06-26T04:56:41;19.10;99.90
8957;DHT22;4513;50.054;8.230;2023-06-26T04:59:09;19.10;99.90
8957;DHT22;4513;50.054;8.230;2023-06-26T05:01:41;19.20;99.90
8957;DHT22;4513;50.054;8.230;2023-06-26T05:04:13;19.20;99.90
8957;DHT22;4513;50.054;8.230;2023-06-26T05:06:40;19.30;99.90
8957;DHT22;4513;50.054;8.230;2023-06-26T05:09:08;19.30;99.90
8957;DHT22;4513;50.054;8.230;2023-06-26T05:11:36;19.30;99.90
8957;DHT22;4513;50.054;8.230;2023-06-26T05:14:03;19.30;99.90
8957;DHT22;4513;50.054;8.230;2023-06-26T05:16:33;19.40;99.90
8957;DHT22;4513;50.054;8.230;2023-06-26T05:19:00;19.50;99.90
8957;DHT22;4513;50.054;8.230;2023-06-26T05:21:28;19.60;99.90
8957;DHT22;4513;50.054;8.230;2023-06-26T05:23:56;19.60;99.90
8957;DHT22;4513;50.054;8.230;2023-06-26T05:26:26;19.70;99.90
8957;DHT22;4513;50.054;8.230;2023-06-26T05:28:54;19.80;99.90
8957;DHT22;4513;50.054;8.230;2023-06-26T05:31:21;19.80;99.90
8957;DHT22;4513;50.054;8.230;2023-06-26T05:33:49;19.80;99.90
8957;DHT22;4513;50.054;8.230;2023-06-26T05:36:20;19.90;99.90
8957;DHT22;4513;50.054;8.230;2023-06-26T05:38:48;19.90;99.90
8957;DHT22;4513;50.054;8.230;2023-06-26T05:41:16;20.00;99.90
8957;DHT22;4513;50.054;8.230;2023-06-26T05:43:44;20.10;99.90
8957;DHT22;4513;50.054;8.230;2023-06-26T05:46:11;20.10;99.90
8957;DHT22;4513;50.054;8.230;2023-06-26T05:48:38;20.10;99.90
8957;DHT22;4513;50.054;8.230;2023-06-26T05:51:05;20.20;99.90
8957;DHT22;4513;50.054;8.230;2023-06-26T05:53:32;20.40;99.90
8957;DHT22;4513;50.054;8.230;2023-06-26T05:56:00;20.50;99.90
8957;DHT22;4513;50.054;8.230;2023-06-26T05:58:27;20.60;99.90
8957;DHT22;4513;50.054;8.230;2023-06-26T06:00:55;20.60;99.90
8957;DHT22;4513;50.054;8.230;2023-06-26T06:03:23;20.60;99.90
8957;DHT22;4513;50.054;8.230;2023-06-26T06:05:50;20.60;99.90
8957;DHT22;4513;50.054;8.230;2023-06-26T06:08:16;20.60;99.90
8957;DHT22;4513;50.054;8.230;2023-06-26T06:10:43;20.70;99.90
8957;DHT22;4513;50.054;8.230;2023-06-26T06:13:10;20.80;99.90
8957;DHT22;4513;50.054;8.230;2023-06-26T06:15:37;21.00;99.90
8957;DHT22;4513;50.054;8.230;2023-06-26T06:18:05;21.10;99.90
8957;DHT22;4513;50.054;8.230;2023-06-26T06:20:32;21.20;99.50
8957;DHT22;4513;50.054;8.230;2023-06-26T06:22:58;21.20;99.70
8957;DHT22;4513;50.054;8.230;2023-06-26T06:25:25;21.40;99.50
8957;DHT22;4513;50.054;8.230;2023-06-26T06:27:52;21.50;99.20
8957;DHT22;4513;50.054;8.230;2023-06-26T06:30:19;21.80;98.90
8957;DHT22;4513;50.054;8.230;2023-06-26T06:32:46;21.90;98.60
8957;DHT22;4513;50.054;8.230;2023-06-26T06:35:17;22.00;98.10
8957;DHT22;4513;50.054;8.230;2023-06-26T06:37:44;22.10;97.10
8957;DHT22;4513;50.054;8.230;2023-06-26T06:40:11;22.20;97.40
8957;DHT22;4513;50.054;8.230;2023-06-26T06:42:39;22.30;97.20
8957;DHT22;4513;50.054;8.230;2023-06-26T06:45:06;22.40;97.20
8957;DHT22;4513;50.054;8.230;2023-06-26T06:47:33;22.60;96.90
8957;DHT22;4513;50.054;8.230;2023-06-26T06:50:00;22.80;96.10
8957;DHT22;4513;50.054;8.230;2023-06-26T06:52:35;23.00;95.10
8957;DHT22;4513;50.054;8.230;2023-06-26T06:55:02;23.10;93.80
8957;DHT22;4513;50.054;8.230;2023-06-26T06:57:32;23.20;93.60
8957;DHT22;4513;50.054;8.230;2023-06-26T07:00:02;23.20;93.50
8957;DHT22;4513;50.054;8.230;2023-06-26T07:02:29;23.20;92.30
8957;DHT22;4513;50.054;8.230;2023-06-26T07:04:56;23.20;92.80
8957;DHT22;4513;50.054;8.230;2023-06-26T07:07:23;23.30;91.90
8957;DHT22;4513;50.054;8.230;2023-06-26T07:09:51;23.50;91.90
8957;DHT22;4513;50.054;8.230;2023-06-26T07:12:18;23.50;92.60
8957;DHT22;4513;50.054;8.230;2023-06-26T07:14:45;23.70;92.20
8957;DHT22;4513;50.054;8.230;2023-06-26T07:17:11;23.80;91.90
8957;DHT22;4513;50.054;8.230;2023-06-26T07:19:38;23.90;91.70
8957;DHT22;4513;50.054;8.230;2023-06-26T07:22:05;24.00;90.80
8957;DHT22;4513;50.054;8.230;2023-06-26T07:24:32;24.00;91.00
8957;DHT22;4513;50.054;8.230;2023-06-26T07:27:00;24.20;91.20
8957;DHT22;4513;50.054;8.230;2023-06-26T07:29:27;24.30;91.90
8957;DHT22;4513;50.054;8.230;2023-06-26T07:31:54;24.40;90.50
8957;DHT22;4513;50.054;8.230;2023-06-26T07:34:21;24.40;90.00
8957;DHT22;4513;50.054;8.230;2023-06-26T07:36:47;24.60;88.60
8957;DHT22;4513;50.054;8.230;2023-06-26T07:39:14;24.60;88.10
8957;DHT22;4513;50.054;8.230;2023-06-26T07:41:41;24.70;86.50
8957;DHT22;4513;50.054;8.230;2023-06-26T07:44:09;24.80;86.60
8957;DHT22;4513;50.054;8.230;2023-06-26T07:46:36;25.00;86.70
8957;DHT22;4513;50.054;8.230;2023-06-26T07:49:03;25.20;86.00
8957;DHT22;4513;50.054;8.230;2023-06-26T07:51:29;25.50;87.00
8957;DHT22;4513;50.054;8.230;2023-06-26T07:53:56;25.70;85.30
8957;DHT22;4513;50.054;8.230;2023-06-26T07:56:23;25.60;85.20
8957;DHT22;4513;50.054;8.230;2023-06-26T07:58:50;25.50;87.20
8957;DHT22;4513;50.054;8.230;2023-06-26T08:01:18;25.30;87.30
8957;DHT22;4513;50.054;8.230;2023-06-26T08:03:45;25.40;88.60
8957;DHT22;4513;50.054;8.230;2023-06-26T08:06:11;25.40;89.00
8957;DHT22;4513;50.054;8.230;2023-06-26T08:08:38;25.40;88.70
8957;DHT22;4513;50.054;8.230;2023-06-26T08:11:05;25.40;89.00
8957;DHT22;4513;50.054;8.230;2023-06-26T08:13:32;25.40;88.30
8957;DHT22;4513;50.054;8.230;2023-06-26T08:15:59;25.40;88.70
8957;DHT22;4513;50.054;8.230;2023-06-26T08:18:27;25.50;87.30
8957;DHT22;4513;50.054;8.230;2023-06-26T08:20:55;25.60;86.50
8957;DHT22;4513;50.054;8.230;2023-06-26T08:23:22;25.70;87.00
8957;DHT22;4513;50.054;8.230;2023-06-26T08:25:50;25.90;88.00
8957;DHT22;4513;50.054;8.230;2023-06-26T08:28:16;26.20;86.80
8957;DHT22;4513;50.054;8.230;2023-06-26T08:30:43;26.50;87.50
8957;DHT22;4513;50.054;8.230;2023-06-26T08:33:10;26.70;86.90
8957;DHT22;4513;50.054;8.230;2023-06-26T08:35:39;26.90;86.10
8957;DHT22;4513;50.054;8.230;2023-06-26T08:38:05;26.90;86.10
8957;DHT22;4513;50.054;8.230;2023-06-26T08:40:34;26.90;84.70
8957;DHT22;4513;50.054;8.230;2023-06-26T08:43:02;26.90;85.20
8957;DHT22;4513;50.054;8.230;2023-06-26T08:45:29;26.90;84.40
8957;DHT22;4513;50.054;8.230;2023-06-26T08:48:00;27.10;86.80
8957;DHT22;4513;50.054;8.230;2023-06-26T08:50:30;27.50;85.40
8957;DHT22;4513;50.054;8.230;2023-06-26T08:53:04;27.80;83.90
8957;DHT22;4513;50.054;8.230;2023-06-26T08:55:33;28.40;80.70
8957;DHT22;4513;50.054;8.230;2023-06-26T08:58:02;28.90;79.70
8957;DHT22;4513;50.054;8.230;2023-06-26T09:00:29;29.50;79.70
8957;DHT22;4513;50.054;8.230;2023-06-26T09:02:56;30.20;77.80
8957;DHT22;4513;50.054;8.230;2023-06-26T09:05:23;30.50;75.40
8957;DHT22;4513;50.054;8.230;2023-06-26T09:07:50;30.30;73.80
8957;DHT22;4513;50.054;8.230;2023-06-26T09:10:22;30.20;74.40
8957;DHT22;4513;50.054;8.230;2023-06-26T09:12:49;30.30;74.10
8957;DHT22;4513;50.054;8.230;2023-06-26T09:15:18;30.30;74.50
8957;DHT22;4513;50.054;8.230;2023-06-26T09:17:48;30.60;73.40
8957;DHT22;4513;50.054;8.230;2023-06-26T09:20:15;31.20;72.10
8957;DHT22;4513;50.054;8.230;2023-06-26T09:22:43;30.90;71.70
8957;DHT22;4513;50.054;8.230;2023-06-26T09:25:13;31.50;71.90
8957;DHT22;4513;50.054;8.230;2023-06-26T09:27:43;31.40;71.10
8957;DHT22;4513;50.054;8.230;2023-06-26T09:30:11;30.90;70.90
8957;DHT22;4513;50.054;8.230;2023-06-26T09:32:37;30.60;70.20
8957;DHT22;4513;50.054;8.230;2023-06-26T09:35:05;30.30;72.40
8957;DHT22;4513;50.054;8.230;2023-06-26T09:37:32;29.80;73.30
8957;DHT22;4513;50.054;8.230;2023-06-26T09:40:00;29.50;73.90
8957;DHT22;4513;50.054;8.230;2023-06-26T09:42:29;29.70;73.30
8957;DHT22;4513;50.054;8.230;2023-06-26T09:44:57;29.60;72.90
8957;DHT22;4513;50.054;8.230;2023-06-26T09:47:24;29.10;74.60
8957;DHT22;4513;50.054;8.230;2023-06-26T09:49:51;28.90;76.20
8957;DHT22;4513;50.054;8.230;2023-06-26T09:52:21;28.90;75.50
8957;DHT22;4513;50.054;8.230;2023-06-26T09:54:47;29.30;74.40
8957;DHT22;4513;50.054;8.230;2023-06-26T09:57:16;29.50;74.80
8957;DHT22;4513;50.054;8.230;2023-06-26T09:59:44;29.60;74.70
8957;DHT22;4513;50.054;8.230;2023-06-26T10:02:12;29.40;73.40
8957;DHT22;4513;50.054;8.230;2023-06-26T10:04:39;29.70;73.60
8957;DHT22;4513;50.054;8.230;2023-06-26T10:07:08;29.90;72.90
8957;DHT22;4513;50.054;8.230;2023-06-26T10:09:40;30.80;71.80
8957;DHT22;4513;50.054;8.230;2023-06-26T10:12:12;30.60;71.70
8957;DHT22;4513;50.054;8.230;2023-06-26T10:14:41;30.60;72.80
8957;DHT22;4513;50.054;8.230;2023-06-26T10:17:10;31.10;71.50
8957;DHT22;4513;50.054;8.230;2023-06-26T10:19:44;31.10;71.80
8957;DHT22;4513;50.054;8.230;2023-06-26T10:22:14;31.50;72.50
8957;DHT22;4513;50.054;8.230;2023-06-26T10:24:42;31.10;70.80
8957;DHT22;4513;50.054;8.230;2023-06-26T10:27:15;30.80;72.80
8957;DHT22;4513;50.054;8.230;2023-06-26T10:29:43;31.20;71.20
8957;DHT22;4513;50.054;8.230;2023-06-26T10:32:13;31.10;72.80
8957;DHT22;4513;50.054;8.230;2023-06-26T10:34:42;30.80;72.40
8957;DHT22;4513;50.054;8.230;2023-06-26T10:37:09;30.20;73.70
8957;DHT22;4513;50.054;8.230;2023-06-26T10:39:49;30.10;74.10
8957;DHT22;4513;50.054;8.230;2023-06-26T10:42:17;30.20;73.90
8957;DHT22;4513;50.054;8.230;2023-06-26T10:44:46;30.20;73.20
8957;DHT22;4513;50.054;8.230;2023-06-26T10:47:29;30.10;71.60
8957;DHT22;4513;50.054;8.230;2023-06-26T10:50:16;29.80;74.00
8957;DHT22;4513;50.054;8.230;2023-06-26T10:52:44;30.10;75.70
8957;DHT22;4513;50.054;8.230;2023-06-26T10:55:11;30.50;75.40
8957;DHT22;4513;50.054;8.230;2023-06-26T10:57:38;30.30;73.90
8957;DHT22;4513;50.054;8.230;2023-06-26T11:00:11;30.10;75.10
8957;DHT22;4513;50.054;8.230;2023-06-26T11:02:49;29.80;72.80
8957;DHT22;4513;50.054;8.230;2023-06-26T11:05:27;29.90;75.00
8957;DHT22;4513;50.054;8.230;2023-06-26T11:08:06;30.10;73.50
8957;DHT22;4513;50.054;8.230;2023-06-26T11:10:49;30.30;73.20
8957;DHT22;4513;50.054;8.230;2023-06-26T11:13:17;30.40;73.70
8957;DHT22;4513;50.054;8.230;2023-06-26T11:15:45;30.50;74.00
8957;DHT22;4513;50.054;8.230;2023-06-26T11:18:13;30.70;71.90
8957;DHT22;4513;50.054;8.230;2023-06-26T11:20:42;30.50;72.10
8957;DHT22;4513;50.054;8.230;2023-06-26T11:23:09;29.90;72.70
8957;DHT22;4513;50.054;8.230;2023-06-26T11:25:37;29.80;74.40
8957;DHT22;4513;50.054;8.230;2023-06-26T11:28:05;30.00;73.30
8957;DHT22;4513;50.054;8.230;2023-06-26T11:30:32;30.20;72.70
8957;DHT22;4513;50.054;8.230;2023-06-26T11:33:05;30.10;71.60
8957;DHT22;4513;50.054;8.230;2023-06-26T11:35:32;30.10;73.00
8957;DHT22;4513;50.054;8.230;2023-06-26T11:38:02;30.20;73.40
8957;DHT22;4513;50.054;8.230;2023-06-26T11:40:31;30.30;71.90
8957;DHT22;4513;50.054;8.230;2023-06-26T11:42:59;30.30;71.10
8957;DHT22;4513;50.054;8.230;2023-06-26T11:45:28;30.10;70.80
8957;DHT22;4513;50.054;8.230;2023-06-26T11:47:55;30.10;72.80
8957;DHT22;4513;50.054;8.230;2023-06-26T11:50:24;30.10;72.10
8957;DHT22;4513;50.054;8.230;2023-06-26T11:52:56;30.10;72.60
8957;DHT22;4513;50.054;8.230;2023-06-26T11:55:25;29.90;69.80
8957;DHT22;4513;50.054;8.230;2023-06-26T11:57:54;30.10;70.30
8957;DHT22;4513;50.054;8.230;2023-06-26T12:00:21;30.40;70.00
8957;DHT22;4513;50.054;8.230;2023-06-26T12:02:49;30.30;68.50
8957;DHT22;4513;50.054;8.230;2023-06-26T12:05:17;30.10;66.90
8957;DHT22;4513;50.054;8.230;2023-06-26T12:07:46;30.00;67.70
8957;DHT22;4513;50.054;8.230;2023-06-26T12:10:14;30.00;68.60
8957;DHT22;4513;50.054;8.230;2023-06-26T12:12:43;29.90;72.30
8957;DHT22;4513;50.054;8.230;2023-06-26T12:15:16;29.80;75.30
8957;DHT22;4513;50.054;8.230;2023-06-26T12:17:43;29.60;76.30
8957;DHT22;4513;50.054;8.230;2023-06-26T12:20:20;29.30;76.30
8957;DHT22;4513;50.054;8.230;2023-06-26T12:22:47;29.40;76.50
8957;DHT22;4513;50.054;8.230;2023-06-26T12:25:15;29.40;76.50
8957;DHT22;4513;50.054;8.230;2023-06-26T12:27:46;29.10;78.00
8957;DHT22;4513;50.054;8.230;2023-06-26T12:30:13;29.10;77.80
8957;DHT22;4513;50.054;8.230;2023-06-26T12:32:40;29.30;77.90
8957;DHT22;4513;50.054;8.230;2023-06-26T12:35:10;29.20;80.20
8957;DHT22;4513;50.054;8.230;2023-06-26T12:37:37;29.20;79.30
8957;DHT22;4513;50.054;8.230;2023-06-26T12:40:16;29.40;79.30
8957;DHT22;4513;50.054;8.230;2023-06-26T12:42:44;29.50;78.10
8957;DHT22;4513;50.054;8.230;2023-06-26T12:45:15;29.40;77.20
8957;DHT22;4513;50.054;8.230;2023-06-26T12:47:42;29.40;77.50
8957;DHT22;4513;50.054;8.230;2023-06-26T12:50:09;29.50;75.50
8957;DHT22;4513;50.054;8.230;2023-06-26T12:52:36;29.40;77.40
8957;DHT22;4513;50.054;8.230;2023-06-26T12:55:03;29.00;75.80
8957;DHT22;4513;50.054;8.230;2023-06-26T12:57:33;29.00;77.20
8957;DHT22;4513;50.054;8.230;2023-06-26T13:00:02;29.20;76.10
8957;DHT22;4513;50.054;8.230;2023-06-26T13:02:30;29.10;73.90
8957;DHT22;4513;50.054;8.230;2023-06-26T13:04:57;29.20;73.90
8957;DHT22;4513;50.054;8.230;2023-06-26T13:07:24;29.30;73.90
8957;DHT22;4513;50.054;8.230;2023-06-26T13:09:51;29.20;74.20
8957;DHT22;4513;50.054;8.230;2023-06-26T13:12:18;29.20;75.00
8957;DHT22;4513;50.054;8.230;2023-06-26T13:14:45;29.20;75.10
8957;DHT22;4513;50.054;8.230;2023-06-26T13:17:12;29.30;72.30
8957;DHT22;4513;50.054;8.230;2023-06-26T13:19:40;29.40;73.10
8957;DHT22;4513;50.054;8.230;2023-06-26T13:22:07;29.50;72.60
8957;DHT22;4513;50.054;8.230;2023-06-26T13:24:35;29.40;72.40
8957;DHT22;4513;50.054;8.230;2023-06-26T13:27:02;29.30;73.50
8957;DHT22;4513;50.054;8.230;2023-06-26T13:29:29;29.00;73.80
8957;DHT22;4513;50.054;8.230;2023-06-26T13:31:56;29.00;73.90
8957;DHT22;4513;50.054;8.230;2023-06-26T13:34:23;29.20;75.70
8957;DHT22;4513;50.054;8.230;2023-06-26T13:36:54;29.30;73.90
8957;DHT22;4513;50.054;8.230;2023-06-26T13:39:21;28.90;75.10
8957;DHT22;4513;50.054;8.230;2023-06-26T13:41:48;28.70;73.40
8957;DHT22;4513;50.054;8.230;2023-06-26T13:44:15;28.70;73.00
8957;DHT22;4513;50.054;8.230;2023-06-26T13:46:42;28.70;74.70
8957;DHT22;4513;50.054;8.230;2023-06-26T13:49:09;28.90;75.40
8957;DHT22;4513;50.054;8.230;2023-06-26T13:51:37;29.00;75.20
8957;DHT22;4513;50.054;8.230;2023-06-26T13:54:22;28.90;73.90
8957;DHT22;4513;50.054;8.230;2023-06-26T13:56:49;28.80;73.90
8957;DHT22;4513;50.054;8.230;2023-06-26T13:59:16;28.70;73.00
8957;DHT22;4513;50.054;8.230;2023-06-26T14:01:43;28.60;73.80
8957;DHT22;4513;50.054;8.230;2023-06-26T14:04:10;28.70;73.10
8957;DHT22;4513;50.054;8.230;2023-06-26T14:06:37;28.70;73.10
8957;DHT22;4513;50.054;8.230;2023-06-26T14:09:04;28.50;73.70
8957;DHT22;4513;50.054;8.230;2023-06-26T14:11:33;28.70;72.50
8957;DHT22;4513;50.054;8.230;2023-06-26T14:14:03;28.50;72.20
8957;DHT22;4513;50.054;8.230;2023-06-26T14:16:30;28.40;72.60
8957;DHT22;4513;50.054;8.230;2023-06-26T14:18:57;28.20;71.80
8957;DHT22;4513;50.054;8.230;2023-06-26T14:21:24;28.20;71.60
8957;DHT22;4513;50.054;8.230;2023-06-26T14:23:52;28.10;71.00
8957;DHT22;4513;50.054;8.230;2023-06-26T14:26:19;28.20;72.20
8957;DHT22;4513;50.054;8.230;2023-06-26T14:28:47;28.20;70.20
8957;DHT22;4513;50.054;8.230;2023-06-26T14:31:14;28.20;70.40
8957;DHT22;4513;50.054;8.230;2023-06-26T14:33:40;28.00;71.40
8957;DHT22;4513;50.054;8.230;2023-06-26T14:36:07;27.80;69.40
8957;DHT22;4513;50.054;8.230;2023-06-26T14:38:35;27.90;71.00
8957;DHT22;4513;50.054;8.230;2023-06-26T14:41:01;28.00;71.20
8957;DHT22;4513;50.054;8.230;2023-06-26T14:43:28;28.10;70.50
8957;DHT22;4513;50.054;8.230;2023-06-26T14:45:57;28.10;68.80
8957;DHT22;4513;50.054;8.230;2023-06-26T14:48:23;28.00;68.90
8957;DHT22;4513;50.054;8.230;2023-06-26T14:50:50;28.00;68.90
8957;DHT22;4513;50.054;8.230;2023-06-26T14:53:17;28.00;68.70
8957;DHT22;4513;50.054;8.230;2023-06-26T14:55:44;27.90;68.60
8957;DHT22;4513;50.054;8.230;2023-06-26T14:58:11;27.80;70.00
8957;DHT22;4513;50.054;8.230;2023-06-26T15:00:37;28.00;70.00
8957;DHT22;4513;50.054;8.230;2023-06-26T15:03:06;28.00;67.30
8957;DHT22;4513;50.054;8.230;2023-06-26T15:05:32;27.70;67.30
8957;DHT22;4513;50.054;8.230;2023-06-26T15:07:59;27.70;68.50
8957;DHT22;4513;50.054;8.230;2023-06-26T15:10:26;27.50;67.50
8957;DHT22;4513;50.054;8.230;2023-06-26T15:12:53;27.30;67.90
8957;DHT22;4513;50.054;8.230;2023-06-26T15:15:20;27.30;67.90
8957;DHT22;4513;50.054;8.230;2023-06-26T15:17:47;27.40;68.50
8957;DHT22;4513;50.054;8.230;2023-06-26T15:20:16;27.30;68.40
8957;DHT22;4513;50.054;8.230;2023-06-26T15:22:43;27.40;68.70
8957;DHT22;4513;50.054;8.230;2023-06-26T15:25:09;27.40;67.80
8957;DHT22;4513;50.054;8.230;2023-06-26T15:27:36;27.40;68.00
8957;DHT22;4513;50.054;8.230;2023-06-26T15:30:04;27.50;70.30
8957;DHT22;4513;50.054;8.230;2023-06-26T15:32:31;27.60;68.40
8957;DHT22;4513;50.054;8.230;2023-06-26T15:34:58;27.40;68.10
8957;DHT22;4513;50.054;8.230;2023-06-26T15:37:26;27.30;68.00
8957;DHT22;4513;50.054;8.230;2023-06-26T15:39:53;27.10;68.50
8957;DHT22;4513;50.054;8.230;2023-06-26T15:42:20;27.20;69.50
8957;DHT22;4513;50.054;8.230;2023-06-26T15:44:47;27.30;69.40
8957;DHT22;4513;50.054;8.230;2023-06-26T15:47:14;27.10;66.50
8957;DHT22;4513;50.054;8.230;2023-06-26T15:49:42;26.90;67.70
8957;DHT22;4513;50.054;8.230;2023-06-26T15:52:11;26.80;67.00
8957;DHT22;4513;50.054;8.230;2023-06-26T15:54:40;26.80;67.70
8957;DHT22;4513;50.054;8.230;2023-06-26T15:57:06;26.90;68.80
8957;DHT22;4513;50.054;8.230;2023-06-26T15:59:33;26.80;67.20
8957;DHT22;4513;50.054;8.230;2023-06-26T16:02:00;26.80;67.70
8957;DHT22;4513;50.054;8.230;2023-06-26T16:04:27;26.50;68.60
8957;DHT22;4513;50.054;8.230;2023-06-26T16:06:56;26.40;69.30